This is the latest recevied weather packets stored in our database for station/object K4CRS-13. If no packets are shown the sender has not sent any weather packets the latest 10 day(s).
| Time | Temp. | Humidity | Pressure | Rain* | Wind** | Luminosity | Snow |
|---|---|---|---|---|---|---|---|
| 1787664184 | 25.56° C | 76% | 1053.8 hPa | 0 mm | - | 318 W/m² | - |
| 1787663883 | 25.56° C | 78% | 1053.7 hPa | 0 mm | - | 246 W/m² | - |
| 1787663578 | 25° C | 82% | 1053.7 hPa | 0 mm | - | 210 W/m² | - |
| 1787663274 | 25° C | 83% | 1053.8 hPa | 0 mm | - | 190 W/m² | - |
| 1787662971 | 24.44° C | 84% | 1053.9 hPa | 0 mm | - | 175 W/m² | - |
| 1787662671 | 23.33° C | 87% | 1053.7 hPa | 0 mm | - | 160 W/m² | - |
| 1787662365 | 22.78° C | 89% | 1053.8 hPa | 0 mm | - | 143 W/m² | - |
| 1787662061 | 22.22° C | 92% | 1053.6 hPa | 0 mm | - | 129 W/m² | - |
| 1787661757 | 21.67° C | 94% | 1053.6 hPa | 0 mm | - | 118 W/m² | - |
| 1787661456 | 21.11° C | 96% | 1053.5 hPa | 0 mm | - | 103 W/m² | - |
| 1787661155 | 20° C | 96% | 1053.3 hPa | 0 mm | - | 93 W/m² | - |
| 1787660854 | 20° C | 96% | 1053.8 hPa | 0 mm | - | 64 W/m² | - |
| 1787660549 | 19.44° C | 96% | 1053.6 hPa | 0 mm | - | 66 W/m² | - |
| 1787660249 | 18.89° C | 96% | 1053.4 hPa | 0 mm | - | 50 W/m² | - |
| 1787659945 | 18.89° C | 95% | 1053.4 hPa | 0 mm | - | 34 W/m² | - |
| 1787659641 | 18.89° C | 95% | 1053.5 hPa | 0 mm | - | 34 W/m² | - |
| 1787659338 | 18.89° C | 95% | 1053.4 hPa | 0 mm | - | 34 W/m² | - |
| 1787659037 | 18.89° C | 95% | 1053.2 hPa | 0 mm | - | 25 W/m² | - |
| 1787658732 | 18.89° C | 94% | 1053.2 hPa | 0 mm | - | 19 W/m² | - |
| 1787658426 | 18.33° C | 94% | 1053.3 hPa | 1.27 mm | - | 14 W/m² | - |
| 1787658123 | 18.33° C | 94% | 1053.2 hPa | 3.05 mm | - | 10 W/m² | - |
| 1787657817 | 18.33° C | 93% | 1053.3 hPa | 1.78 mm | - | 7 W/m² | - |
| 1787657513 | 18.33° C | 94% | 1053.2 hPa | 0 mm | - | 6 W/m² | - |
| 1787657213 | 18.33° C | 94% | 1053.1 hPa | 0 mm | - | 4 W/m² | - |
| 1787656909 | 18.33° C | 94% | 1053.2 hPa | 0 mm | - | 2 W/m² | - |
* Rain latest hour (hover to see other rain measurements)
** Current wind speed in m/s (hover to see current wind gust speed)